sensor_id;sensor_type;location;lat;lon;timestamp;temperature;humidity
17284;DHT22;8760;52.248;20.952;2022-11-20T00:01:12;-3.10;99.90
17284;DHT22;8760;52.248;20.952;2022-11-20T00:03:39;-3.20;1.00
17284;DHT22;8760;52.248;20.952;2022-11-20T00:06:09;-3.20;1.00
17284;DHT22;8760;52.248;20.952;2022-11-20T00:08:36;-3.10;1.00
17284;DHT22;8760;52.248;20.952;2022-11-20T00:11:04;-3.20;1.00
17284;DHT22;8760;52.248;20.952;2022-11-20T00:13:30;-3.20;1.00
17284;DHT22;8760;52.248;20.952;2022-11-20T00:15:58;-3.20;1.00
17284;DHT22;8760;52.248;20.952;2022-11-20T00:18:25;-3.30;1.00
17284;DHT22;8760;52.248;20.952;2022-11-20T00:20:51;-3.30;1.00
17284;DHT22;8760;52.248;20.952;2022-11-20T00:23:20;-3.20;1.00
17284;DHT22;8760;52.248;20.952;2022-11-20T00:25:47;-3.20;1.00
17284;DHT22;8760;52.248;20.952;2022-11-20T00:28:13;-3.20;1.00
17284;DHT22;8760;52.248;20.952;2022-11-20T00:30:40;-3.30;1.00
17284;DHT22;8760;52.248;20.952;2022-11-20T00:33:07;-3.30;64.50
17284;DHT22;8760;52.248;20.952;2022-11-20T00:35:33;-3.30;99.90
17284;DHT22;8760;52.248;20.952;2022-11-20T00:38:00;-3.10;63.90
17284;DHT22;8760;52.248;20.952;2022-11-20T00:40:28;-3.00;1.00
17284;DHT22;8760;52.248;20.952;2022-11-20T00:42:55;-3.10;1.00
17284;DHT22;8760;52.248;20.952;2022-11-20T00:45:22;-3.10;1.00
17284;DHT22;8760;52.248;20.952;2022-11-20T00:47:49;-3.00;1.00
17284;DHT22;8760;52.248;20.952;2022-11-20T00:50:15;-2.90;1.00
17284;DHT22;8760;52.248;20.952;2022-11-20T00:52:42;-2.90;1.00
17284;DHT22;8760;52.248;20.952;2022-11-20T00:55:09;-2.90;99.90
17284;DHT22;8760;52.248;20.952;2022-11-20T00:57:37;-2.90;99.90
17284;DHT22;8760;52.248;20.952;2022-11-20T01:00:05;-2.90;99.90
17284;DHT22;8760;52.248;20.952;2022-11-20T01:02:32;-2.90;99.90
17284;DHT22;8760;52.248;20.952;2022-11-20T01:04:59;-2.80;99.90
17284;DHT22;8760;52.248;20.952;2022-11-20T01:07:25;-2.80;99.90
17284;DHT22;8760;52.248;20.952;2022-11-20T01:09:52;-2.80;99.90
17284;DHT22;8760;52.248;20.952;2022-11-20T01:12:19;-2.80;99.90
17284;DHT22;8760;52.248;20.952;2022-11-20T01:14:48;-2.80;99.90
17284;DHT22;8760;52.248;20.952;2022-11-20T01:17:15;-2.80;99.90
17284;DHT22;8760;52.248;20.952;2022-11-20T01:19:41;-2.90;99.90
17284;DHT22;8760;52.248;20.952;2022-11-20T01:22:09;-2.80;99.90
17284;DHT22;8760;52.248;20.952;2022-11-20T01:24:36;-2.80;99.90
17284;DHT22;8760;52.248;20.952;2022-11-20T01:27:03;-2.80;99.90
17284;DHT22;8760;52.248;20.952;2022-11-20T01:29:29;-2.80;99.90
17284;DHT22;8760;52.248;20.952;2022-11-20T01:31:58;-2.80;99.90
17284;DHT22;8760;52.248;20.952;2022-11-20T01:34:24;-2.80;99.90
17284;DHT22;8760;52.248;20.952;2022-11-20T01:36:52;-2.80;85.30
17284;DHT22;8760;52.248;20.952;2022-11-20T01:39:21;-2.70;99.90
17284;DHT22;8760;52.248;20.952;2022-11-20T01:41:49;-2.80;37.40
17284;DHT22;8760;52.248;20.952;2022-11-20T01:44:47;-2.80;99.90
17284;DHT22;8760;52.248;20.952;2022-11-20T01:47:17;-2.90;99.90
17284;DHT22;8760;52.248;20.952;2022-11-20T01:49:49;-2.80;99.90
17284;DHT22;8760;52.248;20.952;2022-11-20T01:52:20;-2.80;97.20
17284;DHT22;8760;52.248;20.952;2022-11-20T01:54:51;-2.80;99.90
17284;DHT22;8760;52.248;20.952;2022-11-20T01:57:20;-2.80;9.30
17284;DHT22;8760;52.248;20.952;2022-11-20T01:59:53;-2.80;1.00
17284;DHT22;8760;52.248;20.952;2022-11-20T02:02:22;-2.70;1.00
17284;DHT22;8760;52.248;20.952;2022-11-20T02:04:52;-2.70;1.00
17284;DHT22;8760;52.248;20.952;2022-11-20T02:07:20;-2.70;1.00
17284;DHT22;8760;52.248;20.952;2022-11-20T02:09:47;-2.80;1.00
17284;DHT22;8760;52.248;20.952;2022-11-20T02:12:14;-2.80;1.00
17284;DHT22;8760;52.248;20.952;2022-11-20T02:14:56;-2.80;1.00
17284;DHT22;8760;52.248;20.952;2022-11-20T02:17:24;-2.70;1.00
17284;DHT22;8760;52.248;20.952;2022-11-20T02:19:51;-2.80;1.00
17284;DHT22;8760;52.248;20.952;2022-11-20T02:22:22;-2.90;72.60
17284;DHT22;8760;52.248;20.952;2022-11-20T02:24:52;-2.90;99.90
17284;DHT22;8760;52.248;20.952;2022-11-20T02:27:19;-2.90;1.00
17284;DHT22;8760;52.248;20.952;2022-11-20T02:29:51;-2.90;1.00
17284;DHT22;8760;52.248;20.952;2022-11-20T02:32:20;-3.00;1.00
17284;DHT22;8760;52.248;20.952;2022-11-20T02:34:47;-2.90;1.00
17284;DHT22;8760;52.248;20.952;2022-11-20T02:37:14;-2.90;32.10
17284;DHT22;8760;52.248;20.952;2022-11-20T02:39:42;-2.90;34.90
17284;DHT22;8760;52.248;20.952;2022-11-20T02:42:11;-2.90;99.90
17284;DHT22;8760;52.248;20.952;2022-11-20T02:44:38;-2.90;99.90
17284;DHT22;8760;52.248;20.952;2022-11-20T02:47:05;-3.00;1.00
17284;DHT22;8760;52.248;20.952;2022-11-20T02:49:32;-3.00;1.00
17284;DHT22;8760;52.248;20.952;2022-11-20T02:51:59;-3.10;99.90
17284;DHT22;8760;52.248;20.952;2022-11-20T02:54:26;-3.10;1.00
17284;DHT22;8760;52.248;20.952;2022-11-20T02:56:53;-3.20;1.00
17284;DHT22;8760;52.248;20.952;2022-11-20T02:59:21;-3.20;1.00
17284;DHT22;8760;52.248;20.952;2022-11-20T03:01:48;-3.30;19.30
17284;DHT22;8760;52.248;20.952;2022-11-20T03:04:15;-3.20;99.90
17284;DHT22;8760;52.248;20.952;2022-11-20T03:06:42;-3.30;99.90
17284;DHT22;8760;52.248;20.952;2022-11-20T03:09:08;-3.30;1.00
17284;DHT22;8760;52.248;20.952;2022-11-20T03:11:35;-3.40;63.20
17284;DHT22;8760;52.248;20.952;2022-11-20T03:14:03;-3.40;99.90
17284;DHT22;8760;52.248;20.952;2022-11-20T03:16:32;-3.40;96.80
17284;DHT22;8760;52.248;20.952;2022-11-20T03:18:59;-3.40;1.00
17284;DHT22;8760;52.248;20.952;2022-11-20T03:21:26;-3.50;1.00
17284;DHT22;8760;52.248;20.952;2022-11-20T03:23:53;-3.40;1.00
17284;DHT22;8760;52.248;20.952;2022-11-20T03:26:21;-3.40;1.00
17284;DHT22;8760;52.248;20.952;2022-11-20T03:28:50;-3.40;99.90
17284;DHT22;8760;52.248;20.952;2022-11-20T03:31:19;-3.40;1.00
17284;DHT22;8760;52.248;20.952;2022-11-20T03:33:48;-3.30;18.70
17284;DHT22;8760;52.248;20.952;2022-11-20T03:36:16;-3.30;1.00
17284;DHT22;8760;52.248;20.952;2022-11-20T03:38:44;-3.30;1.00
17284;DHT22;8760;52.248;20.952;2022-11-20T03:41:13;-3.30;99.90
17284;DHT22;8760;52.248;20.952;2022-11-20T03:43:40;-3.30;1.00
17284;DHT22;8760;52.248;20.952;2022-11-20T03:46:07;-3.30;1.00
17284;DHT22;8760;52.248;20.952;2022-11-20T03:48:34;-3.30;90.20
17284;DHT22;8760;52.248;20.952;2022-11-20T03:51:13;-3.30;99.90
17284;DHT22;8760;52.248;20.952;2022-11-20T03:53:41;-3.30;1.00
17284;DHT22;8760;52.248;20.952;2022-11-20T03:56:08;-3.30;1.00
17284;DHT22;8760;52.248;20.952;2022-11-20T03:58:37;-3.30;1.00
17284;DHT22;8760;52.248;20.952;2022-11-20T04:01:06;-3.40;1.00
17284;DHT22;8760;52.248;20.952;2022-11-20T04:03:33;-3.30;99.90
17284;DHT22;8760;52.248;20.952;2022-11-20T04:06:02;-3.30;1.00
17284;DHT22;8760;52.248;20.952;2022-11-20T04:08:30;-3.30;8.00
17284;DHT22;8760;52.248;20.952;2022-11-20T04:11:08;-3.30;1.00
17284;DHT22;8760;52.248;20.952;2022-11-20T04:13:35;-3.30;99.90
17284;DHT22;8760;52.248;20.952;2022-11-20T04:16:02;-3.30;1.00
17284;DHT22;8760;52.248;20.952;2022-11-20T04:18:29;-3.30;99.90
17284;DHT22;8760;52.248;20.952;2022-11-20T04:20:56;-3.20;99.90
17284;DHT22;8760;52.248;20.952;2022-11-20T04:23:23;-3.30;1.00
17284;DHT22;8760;52.248;20.952;2022-11-20T04:25:51;-3.30;1.00
17284;DHT22;8760;52.248;20.952;2022-11-20T04:28:18;-3.20;1.00
17284;DHT22;8760;52.248;20.952;2022-11-20T04:30:45;-3.20;99.90
17284;DHT22;8760;52.248;20.952;2022-11-20T04:33:12;-3.20;1.00
17284;DHT22;8760;52.248;20.952;2022-11-20T04:35:39;-3.20;1.00
17284;DHT22;8760;52.248;20.952;2022-11-20T04:38:06;-3.20;99.90
17284;DHT22;8760;52.248;20.952;2022-11-20T04:40:33;-3.20;1.00
17284;DHT22;8760;52.248;20.952;2022-11-20T04:43:01;-3.30;1.00
17284;DHT22;8760;52.248;20.952;2022-11-20T04:45:28;-3.30;99.90
17284;DHT22;8760;52.248;20.952;2022-11-20T04:47:54;-3.30;1.00
17284;DHT22;8760;52.248;20.952;2022-11-20T04:50:21;-3.30;99.90
17284;DHT22;8760;52.248;20.952;2022-11-20T04:52:48;-3.30;99.90
17284;DHT22;8760;52.248;20.952;2022-11-20T04:55:15;-3.30;99.90
17284;DHT22;8760;52.248;20.952;2022-11-20T04:57:41;-3.40;99.90
17284;DHT22;8760;52.248;20.952;2022-11-20T05:00:11;-3.40;99.90
17284;DHT22;8760;52.248;20.952;2022-11-20T05:02:38;-3.50;99.90
17284;DHT22;8760;52.248;20.952;2022-11-20T05:05:05;-3.60;99.90
17284;DHT22;8760;52.248;20.952;2022-11-20T05:07:32;-3.70;1.00
17284;DHT22;8760;52.248;20.952;2022-11-20T05:09:59;-3.70;1.00
17284;DHT22;8760;52.248;20.952;2022-11-20T05:12:25;-3.70;1.00
17284;DHT22;8760;52.248;20.952;2022-11-20T05:14:53;-3.70;1.00
17284;DHT22;8760;52.248;20.952;2022-11-20T05:17:21;-3.80;99.90
17284;DHT22;8760;52.248;20.952;2022-11-20T05:19:48;-3.80;1.00
17284;DHT22;8760;52.248;20.952;2022-11-20T05:22:15;-3.90;99.90
17284;DHT22;8760;52.248;20.952;2022-11-20T05:24:41;-3.90;1.00
17284;DHT22;8760;52.248;20.952;2022-11-20T05:27:08;-3.90;99.90
17284;DHT22;8760;52.248;20.952;2022-11-20T05:29:35;-3.90;1.00
17284;DHT22;8760;52.248;20.952;2022-11-20T05:32:02;-4.00;1.00
17284;DHT22;8760;52.248;20.952;2022-11-20T05:34:31;-4.00;1.00
17284;DHT22;8760;52.248;20.952;2022-11-20T05:36:58;-4.00;1.00
17284;DHT22;8760;52.248;20.952;2022-11-20T05:39:25;-4.10;1.00
17284;DHT22;8760;52.248;20.952;2022-11-20T05:41:51;-4.10;1.00
17284;DHT22;8760;52.248;20.952;2022-11-20T05:44:38;-4.10;1.00
17284;DHT22;8760;52.248;20.952;2022-11-20T05:47:05;-4.10;1.00
17284;DHT22;8760;52.248;20.952;2022-11-20T05:49:34;-4.00;1.00
17284;DHT22;8760;52.248;20.952;2022-11-20T05:52:00;-4.00;58.10
17284;DHT22;8760;52.248;20.952;2022-11-20T05:54:27;-4.10;99.90
17284;DHT22;8760;52.248;20.952;2022-11-20T05:56:54;-4.10;99.90
17284;DHT22;8760;52.248;20.952;2022-11-20T05:59:21;-4.20;1.00
17284;DHT22;8760;52.248;20.952;2022-11-20T06:01:48;-4.20;1.00
17284;DHT22;8760;52.248;20.952;2022-11-20T06:04:15;-4.20;1.00
17284;DHT22;8760;52.248;20.952;2022-11-20T06:06:43;-4.20;1.00
17284;DHT22;8760;52.248;20.952;2022-11-20T06:09:09;-4.20;1.00
17284;DHT22;8760;52.248;20.952;2022-11-20T06:11:36;-4.30;1.00
17284;DHT22;8760;52.248;20.952;2022-11-20T06:14:03;-4.30;1.00
17284;DHT22;8760;52.248;20.952;2022-11-20T06:16:30;-4.20;82.00
17284;DHT22;8760;52.248;20.952;2022-11-20T06:18:57;-4.20;1.00
17284;DHT22;8760;52.248;20.952;2022-11-20T06:21:23;-4.20;1.00
17284;DHT22;8760;52.248;20.952;2022-11-20T06:23:53;-4.10;1.00
17284;DHT22;8760;52.248;20.952;2022-11-20T06:26:21;-4.20;1.00
17284;DHT22;8760;52.248;20.952;2022-11-20T06:28:48;-4.20;1.00
17284;DHT22;8760;52.248;20.952;2022-11-20T06:31:18;-4.20;1.00
17284;DHT22;8760;52.248;20.952;2022-11-20T06:33:45;-4.20;1.00
17284;DHT22;8760;52.248;20.952;2022-11-20T06:36:13;-4.20;1.00
17284;DHT22;8760;52.248;20.952;2022-11-20T06:38:40;-4.10;1.00
17284;DHT22;8760;52.248;20.952;2022-11-20T06:41:11;-4.10;1.00
17284;DHT22;8760;52.248;20.952;2022-11-20T06:43:38;-4.10;1.00
17284;DHT22;8760;52.248;20.952;2022-11-20T06:46:05;-4.00;99.90
17284;DHT22;8760;52.248;20.952;2022-11-20T06:48:31;-4.00;99.90
17284;DHT22;8760;52.248;20.952;2022-11-20T06:50:58;-3.90;1.00
17284;DHT22;8760;52.248;20.952;2022-11-20T06:53:25;-3.90;99.90
17284;DHT22;8760;52.248;20.952;2022-11-20T06:55:52;-4.00;1.00
17284;DHT22;8760;52.248;20.952;2022-11-20T06:58:23;-4.00;99.90
17284;DHT22;8760;52.248;20.952;2022-11-20T07:00:52;-4.00;1.00
17284;DHT22;8760;52.248;20.952;2022-11-20T07:03:19;-4.00;99.90
17284;DHT22;8760;52.248;20.952;2022-11-20T07:05:46;-4.00;99.90
17284;DHT22;8760;52.248;20.952;2022-11-20T07:08:13;-3.90;1.00
17284;DHT22;8760;52.248;20.952;2022-11-20T07:10:39;-3.90;1.00
17284;DHT22;8760;52.248;20.952;2022-11-20T07:13:06;-3.80;99.90
17284;DHT22;8760;52.248;20.952;2022-11-20T07:15:34;-3.80;1.00
17284;DHT22;8760;52.248;20.952;2022-11-20T07:18:04;-3.70;99.90
17284;DHT22;8760;52.248;20.952;2022-11-20T07:20:31;-3.70;99.90
17284;DHT22;8760;52.248;20.952;2022-11-20T07:22:58;-3.70;1.00
17284;DHT22;8760;52.248;20.952;2022-11-20T07:25:26;-3.60;1.00
17284;DHT22;8760;52.248;20.952;2022-11-20T07:27:56;-3.60;94.30
17284;DHT22;8760;52.248;20.952;2022-11-20T07:30:22;-3.60;1.00
17284;DHT22;8760;52.248;20.952;2022-11-20T07:32:52;-3.50;60.20
17284;DHT22;8760;52.248;20.952;2022-11-20T07:35:19;-3.50;2.30
17284;DHT22;8760;52.248;20.952;2022-11-20T07:37:46;-3.40;99.90
17284;DHT22;8760;52.248;20.952;2022-11-20T07:40:14;-3.40;1.00
17284;DHT22;8760;52.248;20.952;2022-11-20T07:42:47;-3.40;1.00
17284;DHT22;8760;52.248;20.952;2022-11-20T07:45:14;-3.40;99.90
17284;DHT22;8760;52.248;20.952;2022-11-20T07:47:41;-3.40;1.00
17284;DHT22;8760;52.248;20.952;2022-11-20T07:50:10;-3.20;1.00
17284;DHT22;8760;52.248;20.952;2022-11-20T07:52:37;-3.10;99.60
17284;DHT22;8760;52.248;20.952;2022-11-20T07:55:04;-3.10;1.00
17284;DHT22;8760;52.248;20.952;2022-11-20T07:57:31;-3.10;99.90
17284;DHT22;8760;52.248;20.952;2022-11-20T07:59:58;-3.00;99.90
17284;DHT22;8760;52.248;20.952;2022-11-20T08:02:24;-3.10;1.00
17284;DHT22;8760;52.248;20.952;2022-11-20T08:04:51;-3.00;1.00
17284;DHT22;8760;52.248;20.952;2022-11-20T08:07:19;-3.00;1.00
17284;DHT22;8760;52.248;20.952;2022-11-20T08:09:46;-2.80;1.00
17284;DHT22;8760;52.248;20.952;2022-11-20T08:12:18;-2.80;99.90
17284;DHT22;8760;52.248;20.952;2022-11-20T08:15:03;-2.80;1.00
17284;DHT22;8760;52.248;20.952;2022-11-20T08:17:30;-2.60;1.00
17284;DHT22;8760;52.248;20.952;2022-11-20T08:19:57;-2.50;99.90
17284;DHT22;8760;52.248;20.952;2022-11-20T08:22:25;-2.20;99.90
17284;DHT22;8760;52.248;20.952;2022-11-20T08:24:52;-1.90;99.90
17284;DHT22;8760;52.248;20.952;2022-11-20T08:27:19;-1.20;1.00
17284;DHT22;8760;52.248;20.952;2022-11-20T08:29:45;-0.30;1.00
17284;DHT22;8760;52.248;20.952;2022-11-20T08:32:12;0.80;99.90
17284;DHT22;8760;52.248;20.952;2022-11-20T08:34:39;1.20;63.40
17284;DHT22;8760;52.248;20.952;2022-11-20T08:37:06;1.10;1.00
17284;DHT22;8760;52.248;20.952;2022-11-20T08:39:34;0.80;1.00
17284;DHT22;8760;52.248;20.952;2022-11-20T08:42:01;0.70;1.00
17284;DHT22;8760;52.248;20.952;2022-11-20T08:44:28;0.60;1.00
17284;DHT22;8760;52.248;20.952;2022-11-20T08:46:55;0.50;1.00
17284;DHT22;8760;52.248;20.952;2022-11-20T08:49:22;0.40;1.00
17284;DHT22;8760;52.248;20.952;2022-11-20T08:51:49;0.70;1.00
17284;DHT22;8760;52.248;20.952;2022-11-20T08:54:19;0.70;1.00
17284;DHT22;8760;52.248;20.952;2022-11-20T08:56:48;0.80;1.00
17284;DHT22;8760;52.248;20.952;2022-11-20T08:59:15;0.60;1.00
17284;DHT22;8760;52.248;20.952;2022-11-20T09:01:42;0.50;1.00
17284;DHT22;8760;52.248;20.952;2022-11-20T09:04:09;0.70;1.00
17284;DHT22;8760;52.248;20.952;2022-11-20T09:06:37;0.80;1.00
17284;DHT22;8760;52.248;20.952;2022-11-20T09:09:03;1.50;1.00
17284;DHT22;8760;52.248;20.952;2022-11-20T09:11:31;2.10;1.00
17284;DHT22;8760;52.248;20.952;2022-11-20T09:13:59;2.40;1.00
17284;DHT22;8760;52.248;20.952;2022-11-20T09:16:28;3.00;1.00
17284;DHT22;8760;52.248;20.952;2022-11-20T09:18:54;3.60;1.00
17284;DHT22;8760;52.248;20.952;2022-11-20T09:21:21;4.30;1.00
17284;DHT22;8760;52.248;20.952;2022-11-20T09:23:50;5.00;1.00
17284;DHT22;8760;52.248;20.952;2022-11-20T09:26:16;5.40;99.90
17284;DHT22;8760;52.248;20.952;2022-11-20T09:28:43;5.70;99.90
17284;DHT22;8760;52.248;20.952;2022-11-20T09:31:19;6.10;99.90
17284;DHT22;8760;52.248;20.952;2022-11-20T09:33:48;6.70;99.90
17284;DHT22;8760;52.248;20.952;2022-11-20T09:36:15;6.60;99.90
17284;DHT22;8760;52.248;20.952;2022-11-20T09:38:44;6.50;99.90
17284;DHT22;8760;52.248;20.952;2022-11-20T09:41:26;6.50;99.90
17284;DHT22;8760;52.248;20.952;2022-11-20T09:43:59;6.20;99.90
17284;DHT22;8760;52.248;20.952;2022-11-20T09:46:33;6.40;99.90
17284;DHT22;8760;52.248;20.952;2022-11-20T09:49:14;6.80;99.90
17284;DHT22;8760;52.248;20.952;2022-11-20T09:51:53;6.80;99.90
17284;DHT22;8760;52.248;20.952;2022-11-20T09:54:27;7.00;99.90
17284;DHT22;8760;52.248;20.952;2022-11-20T09:56:59;7.20;99.90
17284;DHT22;8760;52.248;20.952;2022-11-20T09:59:35;6.90;99.90
17284;DHT22;8760;52.248;20.952;2022-11-20T10:02:15;6.70;99.90
17284;DHT22;8760;52.248;20.952;2022-11-20T10:04:45;6.90;99.90
17284;DHT22;8760;52.248;20.952;2022-11-20T10:07:17;7.40;99.90
17284;DHT22;8760;52.248;20.952;2022-11-20T10:09:51;7.80;99.90
17284;DHT22;8760;52.248;20.952;2022-11-20T10:12:25;7.50;99.90
17284;DHT22;8760;52.248;20.952;2022-11-20T10:15:04;7.30;99.90
17284;DHT22;8760;52.248;20.952;2022-11-20T10:17:58;7.70;99.90
17284;DHT22;8760;52.248;20.952;2022-11-20T10:20:32;8.20;99.90
17284;DHT22;8760;52.248;20.952;2022-11-20T10:23:22;8.90;99.90
17284;DHT22;8760;52.248;20.952;2022-11-20T10:25:58;8.80;99.90
17284;DHT22;8760;52.248;20.952;2022-11-20T10:28:39;9.60;99.90
17284;DHT22;8760;52.248;20.952;2022-11-20T10:31:15;9.30;99.90
17284;DHT22;8760;52.248;20.952;2022-11-20T10:33:46;9.90;99.90
17284;DHT22;8760;52.248;20.952;2022-11-20T10:36:18;9.60;99.90
17284;DHT22;8760;52.248;20.952;2022-11-20T10:38:50;9.60;99.90
17284;DHT22;8760;52.248;20.952;2022-11-20T10:41:24;9.60;99.90
17284;DHT22;8760;52.248;20.952;2022-11-20T10:43:56;10.10;99.90
17284;DHT22;8760;52.248;20.952;2022-11-20T10:46:24;9.90;99.90
17284;DHT22;8760;52.248;20.952;2022-11-20T10:48:53;9.60;99.90
17284;DHT22;8760;52.248;20.952;2022-11-20T10:51:37;9.50;99.90
17284;DHT22;8760;52.248;20.952;2022-11-20T10:54:12;9.90;99.90
17284;DHT22;8760;52.248;20.952;2022-11-20T10:56:47;9.90;99.90
17284;DHT22;8760;52.248;20.952;2022-11-20T10:59:41;9.70;99.90
17284;DHT22;8760;52.248;20.952;2022-11-20T11:02:16;9.10;99.90
17284;DHT22;8760;52.248;20.952;2022-11-20T11:04:46;10.10;99.90
17284;DHT22;8760;52.248;20.952;2022-11-20T11:07:17;9.90;99.90
17284;DHT22;8760;52.248;20.952;2022-11-20T11:09:48;9.90;99.90
17284;DHT22;8760;52.248;20.952;2022-11-20T11:12:16;10.30;99.90
17284;DHT22;8760;52.248;20.952;2022-11-20T11:14:45;9.80;99.90
17284;DHT22;8760;52.248;20.952;2022-11-20T11:17:25;10.10;99.90
17284;DHT22;8760;52.248;20.952;2022-11-20T11:20:07;10.00;99.90
17284;DHT22;8760;52.248;20.952;2022-11-20T11:22:44;9.70;99.90
17284;DHT22;8760;52.248;20.952;2022-11-20T11:25:20;9.60;99.90
17284;DHT22;8760;52.248;20.952;2022-11-20T11:27:48;9.70;99.90
17284;DHT22;8760;52.248;20.952;2022-11-20T11:30:17;9.40;99.90
17284;DHT22;8760;52.248;20.952;2022-11-20T11:32:44;9.20;99.90
17284;DHT22;8760;52.248;20.952;2022-11-20T11:35:28;9.20;99.90
17284;DHT22;8760;52.248;20.952;2022-11-20T11:38:03;9.20;99.90
17284;DHT22;8760;52.248;20.952;2022-11-20T11:40:32;9.90;99.90
17284;DHT22;8760;52.248;20.952;2022-11-20T11:43:04;10.10;99.90
17284;DHT22;8760;52.248;20.952;2022-11-20T11:45:53;10.50;99.90
17284;DHT22;8760;52.248;20.952;2022-11-20T11:48:20;10.00;99.90
17284;DHT22;8760;52.248;20.952;2022-11-20T11:50:50;10.10;99.90
17284;DHT22;8760;52.248;20.952;2022-11-20T11:53:18;10.30;99.90
17284;DHT22;8760;52.248;20.952;2022-11-20T11:55:51;10.20;99.90
17284;DHT22;8760;52.248;20.952;2022-11-20T11:58:33;10.40;99.90
17284;DHT22;8760;52.248;20.952;2022-11-20T12:01:05;10.40;99.90
17284;DHT22;8760;52.248;20.952;2022-11-20T12:03:35;10.30;99.90
17284;DHT22;8760;52.248;20.952;2022-11-20T12:06:08;10.20;99.90
17284;DHT22;8760;52.248;20.952;2022-11-20T12:08:44;9.80;99.90
17284;DHT22;8760;52.248;20.952;2022-11-20T12:11:18;9.80;99.90
17284;DHT22;8760;52.248;20.952;2022-11-20T12:13:52;9.60;99.90
17284;DHT22;8760;52.248;20.952;2022-11-20T12:16:20;9.80;99.90
17284;DHT22;8760;52.248;20.952;2022-11-20T12:18:49;9.40;99.90
17284;DHT22;8760;52.248;20.952;2022-11-20T12:21:31;9.30;99.90
17284;DHT22;8760;52.248;20.952;2022-11-20T12:24:15;9.40;99.90
17284;DHT22;8760;52.248;20.952;2022-11-20T12:26:56;8.90;99.90
17284;DHT22;8760;52.248;20.952;2022-11-20T12:29:35;8.40;99.90
17284;DHT22;8760;52.248;20.952;2022-11-20T12:32:39;7.80;99.90
17284;DHT22;8760;52.248;20.952;2022-11-20T12:35:19;7.60;99.90
17284;DHT22;8760;52.248;20.952;2022-11-20T12:38:02;7.50;99.90
17284;DHT22;8760;52.248;20.952;2022-11-20T12:40:39;7.30;99.90
17284;DHT22;8760;52.248;20.952;2022-11-20T12:43:17;6.90;99.90
17284;DHT22;8760;52.248;20.952;2022-11-20T12:46:17;6.80;99.90
17284;DHT22;8760;52.248;20.952;2022-11-20T12:49:14;6.00;99.90
17284;DHT22;8760;52.248;20.952;2022-11-20T12:52:15;6.10;99.90
17284;DHT22;8760;52.248;20.952;2022-11-20T12:55:07;6.40;99.90
17284;DHT22;8760;52.248;20.952;2022-11-20T12:57:43;6.00;99.90
17284;DHT22;8760;52.248;20.952;2022-11-20T13:00:16;5.10;99.90
17284;DHT22;8760;52.248;20.952;2022-11-20T13:03:06;4.70;99.90
17284;DHT22;8760;52.248;20.952;2022-11-20T13:05:44;4.30;99.90
17284;DHT22;8760;52.248;20.952;2022-11-20T13:08:20;4.00;99.90
17284;DHT22;8760;52.248;20.952;2022-11-20T13:10:52;3.50;99.90
17284;DHT22;8760;52.248;20.952;2022-11-20T13:13:26;3.30;99.90
17284;DHT22;8760;52.248;20.952;2022-11-20T13:16:00;3.10;99.90
17284;DHT22;8760;52.248;20.952;2022-11-20T13:18:35;2.80;99.90
17284;DHT22;8760;52.248;20.952;2022-11-20T13:21:17;2.70;99.90
17284;DHT22;8760;52.248;20.952;2022-11-20T13:23:44;2.60;99.90
17284;DHT22;8760;52.248;20.952;2022-11-20T13:26:19;2.40;99.90
17284;DHT22;8760;52.248;20.952;2022-11-20T13:28:47;2.40;99.90
17284;DHT22;8760;52.248;20.952;2022-11-20T13:31:30;2.30;1.00
17284;DHT22;8760;52.248;20.952;2022-11-20T13:33:59;2.30;1.00
17284;DHT22;8760;52.248;20.952;2022-11-20T13:36:27;2.30;1.00
17284;DHT22;8760;52.248;20.952;2022-11-20T13:38:56;2.20;1.00
17284;DHT22;8760;52.248;20.952;2022-11-20T13:41:27;2.10;1.00
17284;DHT22;8760;52.248;20.952;2022-11-20T13:43:57;2.10;1.00
17284;DHT22;8760;52.248;20.952;2022-11-20T13:46:35;2.00;1.00
17284;DHT22;8760;52.248;20.952;2022-11-20T13:49:07;1.90;1.00
17284;DHT22;8760;52.248;20.952;2022-11-20T13:51:40;1.80;1.00
17284;DHT22;8760;52.248;20.952;2022-11-20T13:54:49;1.70;1.00
17284;DHT22;8760;52.248;20.952;2022-11-20T13:57:34;1.80;1.00
17284;DHT22;8760;52.248;20.952;2022-11-20T14:00:18;1.70;1.00
17284;DHT22;8760;52.248;20.952;2022-11-20T14:02:57;1.60;9.30
17284;DHT22;8760;52.248;20.952;2022-11-20T14:05:25;1.50;99.90
17284;DHT22;8760;52.248;20.952;2022-11-20T14:07:53;1.40;1.00
17284;DHT22;8760;52.248;20.952;2022-11-20T14:10:22;1.40;1.00
17284;DHT22;8760;52.248;20.952;2022-11-20T14:12:51;1.30;1.00
17284;DHT22;8760;52.248;20.952;2022-11-20T14:15:29;1.20;99.90
17284;DHT22;8760;52.248;20.952;2022-11-20T14:17:57;1.10;1.00
17284;DHT22;8760;52.248;20.952;2022-11-20T14:20:25;1.10;1.00
17284;DHT22;8760;52.248;20.952;2022-11-20T14:22:54;1.00;1.00
17284;DHT22;8760;52.248;20.952;2022-11-20T14:25:22;1.00;1.00
17284;DHT22;8760;52.248;20.952;2022-11-20T14:27:54;1.00;1.00
17284;DHT22;8760;52.248;20.952;2022-11-20T14:30:24;1.00;1.00
17284;DHT22;8760;52.248;20.952;2022-11-20T14:32:53;1.00;1.00
17284;DHT22;8760;52.248;20.952;2022-11-20T14:35:24;1.00;99.90
17284;DHT22;8760;52.248;20.952;2022-11-20T14:37:51;0.90;1.00
17284;DHT22;8760;52.248;20.952;2022-11-20T14:40:30;0.90;1.00
17284;DHT22;8760;52.248;20.952;2022-11-20T14:42:59;0.80;1.00
17284;DHT22;8760;52.248;20.952;2022-11-20T14:45:26;0.70;99.90
17284;DHT22;8760;52.248;20.952;2022-11-20T14:47:55;0.70;1.00
17284;DHT22;8760;52.248;20.952;2022-11-20T14:50:25;0.60;99.90
17284;DHT22;8760;52.248;20.952;2022-11-20T14:52:53;0.60;99.90
17284;DHT22;8760;52.248;20.952;2022-11-20T14:55:29;0.60;94.60
17284;DHT22;8760;52.248;20.952;2022-11-20T14:58:00;0.60;99.90
17284;DHT22;8760;52.248;20.952;2022-11-20T15:00:28;0.50;1.00
17284;DHT22;8760;52.248;20.952;2022-11-20T15:02:55;0.50;99.90
17284;DHT22;8760;52.248;20.952;2022-11-20T15:05:24;0.40;1.00
17284;DHT22;8760;52.248;20.952;2022-11-20T15:08:04;0.50;1.00
17284;DHT22;8760;52.248;20.952;2022-11-20T15:10:31;0.40;99.90
17284;DHT22;8760;52.248;20.952;2022-11-20T15:13:04;0.40;1.00
17284;DHT22;8760;52.248;20.952;2022-11-20T15:15:36;0.40;99.90
17284;DHT22;8760;52.248;20.952;2022-11-20T15:18:09;0.40;1.00
17284;DHT22;8760;52.248;20.952;2022-11-20T15:20:37;0.40;99.90
17284;DHT22;8760;52.248;20.952;2022-11-20T15:23:09;0.30;1.00
17284;DHT22;8760;52.248;20.952;2022-11-20T15:25:38;0.40;1.00
17284;DHT22;8760;52.248;20.952;2022-11-20T15:28:14;0.30;1.00
17284;DHT22;8760;52.248;20.952;2022-11-20T15:30:42;0.30;99.90
17284;DHT22;8760;52.248;20.952;2022-11-20T15:33:09;0.20;28.40
17284;DHT22;8760;52.248;20.952;2022-11-20T15:35:36;0.10;1.00
17284;DHT22;8760;52.248;20.952;2022-11-20T15:38:03;0.00;1.00
17284;DHT22;8760;52.248;20.952;2022-11-20T15:40:30;0.10;1.00
17284;DHT22;8760;52.248;20.952;2022-11-20T15:42:57;0.10;1.00
17284;DHT22;8760;52.248;20.952;2022-11-20T15:45:36;0.00;1.00
17284;DHT22;8760;52.248;20.952;2022-11-20T15:48:04;0.00;1.00
17284;DHT22;8760;52.248;20.952;2022-11-20T15:50:36;-0.10;43.40
17284;DHT22;8760;52.248;20.952;2022-11-20T15:53:04;-0.20;1.00
17284;DHT22;8760;52.248;20.952;2022-11-20T15:55:31;-0.20;1.00
17284;DHT22;8760;52.248;20.952;2022-11-20T15:57:58;-0.30;1.00
17284;DHT22;8760;52.248;20.952;2022-11-20T16:00:24;-0.30;1.00
17284;DHT22;8760;52.248;20.952;2022-11-20T16:02:53;-0.30;1.00
17284;DHT22;8760;52.248;20.952;2022-11-20T16:05:19;-0.40;27.10